createdAt,value
2023-02-15T00:00:55.923Z,21.76
2023-02-15T00:03:58.777Z,21.77
2023-02-15T00:07:01.604Z,21.81
2023-02-15T00:10:04.475Z,21.80
2023-02-15T00:13:07.297Z,21.79
2023-02-15T00:16:12.506Z,21.83
2023-02-15T00:19:16.786Z,21.86
2023-02-15T00:22:19.580Z,21.83
2023-02-15T00:25:22.418Z,21.82
2023-02-15T00:28:25.252Z,21.84
2023-02-15T00:31:31.718Z,21.89
2023-02-15T00:34:34.750Z,21.85
2023-02-15T00:37:37.652Z,21.87
2023-02-15T00:40:40.406Z,21.85
2023-02-15T00:43:43.218Z,21.83
2023-02-15T00:46:47.461Z,21.85
2023-02-15T00:49:50.343Z,21.86
2023-02-15T00:52:53.193Z,21.90
2023-02-15T00:55:56.098Z,21.91
2023-02-15T00:58:58.917Z,21.84
2023-02-15T01:02:03.121Z,21.93
2023-02-15T01:05:07.058Z,21.92
2023-02-15T01:08:09.985Z,21.95
2023-02-15T01:11:14.475Z,21.85
2023-02-15T01:14:17.350Z,21.88
2023-02-15T01:17:21.527Z,21.86
2023-02-15T01:20:25.940Z,21.92
2023-02-15T01:23:28.863Z,21.92
2023-02-15T01:26:31.628Z,21.89
2023-02-15T01:29:34.463Z,21.96
2023-02-15T01:32:38.692Z,21.94
2023-02-15T01:35:42.114Z,21.93
2023-02-15T01:38:44.963Z,21.89
2023-02-15T01:41:47.772Z,21.88
2023-02-15T01:44:52.596Z,21.92
2023-02-15T01:48:00.675Z,21.96
2023-02-15T01:51:04.522Z,21.93
2023-02-15T01:54:10.920Z,21.90
2023-02-15T01:57:15.947Z,21.88
2023-02-15T02:00:19.940Z,21.92
2023-02-15T02:03:27.714Z,21.93
2023-02-15T02:06:31.584Z,21.87
2023-02-15T02:09:34.448Z,21.85
2023-02-15T02:12:39.766Z,21.82
2023-02-15T02:15:46.481Z,21.71
2023-02-15T02:18:56.706Z,21.65
2023-02-15T02:22:30.454Z,21.56
2023-02-15T02:25:56.967Z,21.48
2023-02-15T02:29:14.568Z,21.41
2023-02-15T02:32:32.233Z,21.36
2023-02-15T02:35:38.668Z,21.23
2023-02-15T02:38:46.444Z,21.23
2023-02-15T02:41:53.395Z,21.14
2023-02-15T02:44:59.338Z,21.09
2023-02-15T02:48:06.012Z,21.10
2023-02-15T02:51:10.190Z,21.04
2023-02-15T02:54:13.127Z,21.06
2023-02-15T02:57:16.429Z,21.00
2023-02-15T03:00:19.635Z,20.93
2023-02-15T03:03:24.062Z,20.90
2023-02-15T03:06:32.291Z,20.87
2023-02-15T03:09:42.920Z,20.84
2023-02-15T03:12:45.937Z,20.82
2023-02-15T03:16:06.692Z,20.76
2023-02-15T03:19:11.536Z,20.72
2023-02-15T03:22:17.337Z,20.65
2023-02-15T03:25:22.328Z,20.66
2023-02-15T03:28:28.650Z,20.59
2023-02-15T03:31:34.392Z,20.57
2023-02-15T03:34:37.344Z,20.55
2023-02-15T03:37:43.989Z,20.51
2023-02-15T03:41:05.637Z,20.48
2023-02-15T03:44:10.650Z,20.44
2023-02-15T03:47:15.405Z,20.41
2023-02-15T03:50:38.169Z,20.43
2023-02-15T03:53:43.461Z,20.34
2023-02-15T03:57:06.330Z,20.33
2023-02-15T04:00:42.652Z,20.31
2023-02-15T04:03:47.772Z,20.47
2023-02-15T04:06:50.678Z,20.51
2023-02-15T04:10:12.211Z,20.53
2023-02-15T04:13:15.050Z,20.56
2023-02-15T04:16:16.890Z,20.69
2023-02-15T04:19:37.021Z,20.85
2023-02-15T04:22:57.586Z,20.95
2023-02-15T04:26:04.652Z,21.01
2023-02-15T04:29:07.493Z,21.11
2023-02-15T04:32:10.347Z,21.13
2023-02-15T04:35:13.420Z,21.13
2023-02-15T04:38:16.348Z,21.23
2023-02-15T04:41:20.570Z,21.24
2023-02-15T04:44:24.382Z,21.27
2023-02-15T04:47:27.336Z,21.26
2023-02-15T04:50:30.191Z,21.28
2023-02-15T04:53:32.977Z,21.30
2023-02-15T04:56:38.866Z,21.34
2023-02-15T04:59:41.826Z,21.39
2023-02-15T05:02:44.617Z,21.29
2023-02-15T05:05:47.416Z,21.36
2023-02-15T05:08:50.301Z,21.36
2023-02-15T05:11:54.539Z,21.37
2023-02-15T05:14:57.425Z,21.37
2023-02-15T05:18:00.289Z,21.39
2023-02-15T05:21:03.197Z,21.33
2023-02-15T05:24:26.331Z,21.40
2023-02-15T05:27:48.056Z,21.36
2023-02-15T05:30:52.043Z,21.39
2023-02-15T05:33:55.942Z,21.38
2023-02-15T05:36:58.789Z,21.42
2023-02-15T05:40:01.637Z,21.49
2023-02-15T05:43:05.819Z,21.44
2023-02-15T05:46:09.077Z,21.47
2023-02-15T05:49:11.986Z,21.46
2023-02-15T05:52:14.736Z,21.51
2023-02-15T05:55:17.646Z,21.54
2023-02-15T05:58:21.817Z,21.54
2023-02-15T06:01:24.774Z,21.51
2023-02-15T06:04:27.719Z,21.51
2023-02-15T06:07:30.527Z,21.48
2023-02-15T06:10:33.468Z,21.39
2023-02-15T06:13:38.891Z,21.36
2023-02-15T06:16:42.013Z,21.23
2023-02-15T06:19:44.916Z,21.20
2023-02-15T06:22:48.372Z,21.12
2023-02-15T06:25:51.176Z,21.05
2023-02-15T06:28:55.454Z,21.03
2023-02-15T06:31:58.380Z,20.95
2023-02-15T06:35:02.271Z,20.92
2023-02-15T06:38:05.084Z,20.90
2023-02-15T06:41:07.847Z,20.89
2023-02-15T06:44:12.054Z,20.92
2023-02-15T06:47:20.868Z,20.88
2023-02-15T06:50:23.685Z,20.79
2023-02-15T06:53:26.501Z,20.76
2023-02-15T06:56:29.430Z,20.78
2023-02-15T06:59:33.657Z,20.69
2023-02-15T07:02:36.419Z,20.67
2023-02-15T07:05:39.277Z,20.58
2023-02-15T07:08:42.073Z,20.57
2023-02-15T07:12:02.654Z,20.61
2023-02-15T07:15:07.807Z,20.59
2023-02-15T07:18:11.749Z,20.50
2023-02-15T07:21:14.615Z,20.42
2023-02-15T07:24:17.503Z,20.41
2023-02-15T07:27:20.367Z,20.38
2023-02-15T07:30:24.681Z,20.35
2023-02-15T07:33:28.198Z,20.33
2023-02-15T07:36:31.083Z,20.27
2023-02-15T07:39:33.859Z,20.28
2023-02-15T07:42:36.683Z,20.22
2023-02-15T07:45:41.499Z,20.24
2023-02-15T07:48:44.867Z,20.21
2023-02-15T07:51:47.730Z,20.16
2023-02-15T07:54:50.558Z,20.16
2023-02-15T07:57:55.019Z,20.11
2023-02-15T08:00:59.281Z,20.12
2023-02-15T08:04:02.172Z,20.06
2023-02-15T08:07:05.271Z,20.05
2023-02-15T08:10:08.705Z,20.05
2023-02-15T08:13:11.501Z,20.02
2023-02-15T08:16:15.661Z,20.02
2023-02-15T08:19:19.598Z,20.02
2023-02-15T08:22:22.442Z,20.01
2023-02-15T08:25:25.442Z,20.08
2023-02-15T08:28:28.317Z,19.99
2023-02-15T08:31:32.688Z,19.97
2023-02-15T08:34:36.541Z,20.11
2023-02-15T08:37:39.340Z,20.12
2023-02-15T08:40:42.100Z,20.24
2023-02-15T08:43:45.708Z,20.37
2023-02-15T08:46:50.616Z,20.53
2023-02-15T08:49:53.661Z,20.46
2023-02-15T08:52:56.444Z,20.57
2023-02-15T08:55:59.209Z,20.64
2023-02-15T08:59:02.080Z,20.72
2023-02-15T09:02:06.279Z,20.73
2023-02-15T09:05:09.800Z,20.76
2023-02-15T09:08:12.653Z,20.82
2023-02-15T09:11:17.779Z,20.89
2023-02-15T09:14:22.664Z,20.90
2023-02-15T09:17:26.882Z,20.94
2023-02-15T09:20:30.198Z,20.97
2023-02-15T09:23:33.163Z,20.96
2023-02-15T09:26:36.967Z,21.02
2023-02-15T09:29:40.203Z,21.01
2023-02-15T09:32:44.381Z,21.02
2023-02-15T09:35:47.241Z,21.06
2023-02-15T09:38:54.269Z,21.04
2023-02-15T09:42:11.315Z,21.06
2023-02-15T09:45:28.578Z,21.13
2023-02-15T09:48:49.152Z,21.10
2023-02-15T09:52:06.754Z,21.15
2023-02-15T09:55:16.986Z,21.16
2023-02-15T09:58:23.095Z,21.15
2023-02-15T10:01:33.536Z,21.20
2023-02-15T10:04:45.377Z,21.19
2023-02-15T10:08:05.995Z,21.23
2023-02-15T10:11:31.012Z,21.23
2023-02-15T10:14:51.244Z,21.25
2023-02-15T10:18:05.312Z,21.29
2023-02-15T10:21:14.437Z,21.28
2023-02-15T10:24:26.177Z,21.26
2023-02-15T10:27:33.159Z,21.32
2023-02-15T10:30:43.475Z,21.32
2023-02-15T10:33:46.856Z,21.52
2023-02-15T10:37:05.386Z,21.46
2023-02-15T10:40:12.996Z,21.40
2023-02-15T10:43:29.152Z,21.43
2023-02-15T10:46:44.640Z,21.47
2023-02-15T10:50:07.625Z,21.38
2023-02-15T10:53:21.496Z,21.41
2023-02-15T10:56:29.502Z,21.44
2023-02-15T10:59:53.882Z,21.40
2023-02-15T11:03:06.748Z,21.44
2023-02-15T11:06:11.386Z,21.43
2023-02-15T11:09:16.643Z,21.41
2023-02-15T11:12:21.998Z,21.41
2023-02-15T11:15:28.624Z,21.32
2023-02-15T11:18:34.881Z,21.21
2023-02-15T11:21:40.245Z,21.21
2023-02-15T11:24:44.272Z,21.13
2023-02-15T11:27:49.043Z,21.09
2023-02-15T11:30:56.685Z,21.12
2023-02-15T11:34:02.857Z,21.04
2023-02-15T11:37:08.584Z,20.98
2023-02-15T11:40:18.510Z,20.89
2023-02-15T11:43:24.087Z,20.83
2023-02-15T11:46:28.345Z,20.75
2023-02-15T11:49:32.718Z,20.72
2023-02-15T11:52:35.528Z,20.73
2023-02-15T11:55:38.332Z,20.75
2023-02-15T11:58:44.812Z,20.69
2023-02-15T12:01:49.140Z,20.71
2023-02-15T12:04:54.998Z,20.66
2023-02-15T12:08:02.709Z,20.66
2023-02-15T12:11:13.257Z,20.63
2023-02-15T12:14:17.558Z,20.59
2023-02-15T12:17:23.219Z,20.58
2023-02-15T12:20:30.025Z,20.55
2023-02-15T12:23:34.286Z,20.60
2023-02-15T12:26:37.608Z,20.51
2023-02-15T12:29:44.143Z,20.45
2023-02-15T12:32:52.549Z,20.40
2023-02-15T12:36:00.702Z,20.51
2023-02-15T12:39:18.103Z,20.38
2023-02-15T12:42:21.496Z,20.30
2023-02-15T12:45:26.530Z,20.26
2023-02-15T12:48:30.767Z,20.25
2023-02-15T12:51:33.665Z,20.21
2023-02-15T12:54:39.607Z,20.17
2023-02-15T12:57:44.561Z,20.19
2023-02-15T13:00:47.821Z,20.14
2023-02-15T13:04:02.506Z,20.13
2023-02-15T13:07:05.480Z,20.16
2023-02-15T13:10:20.790Z,20.14
2023-02-15T13:13:26.416Z,20.09
2023-02-15T13:16:32.649Z,20.06
2023-02-15T13:19:39.168Z,20.14
2023-02-15T13:22:44.099Z,20.07
2023-02-15T13:25:51.310Z,20.09
2023-02-15T13:28:55.526Z,20.16
2023-02-15T13:31:59.629Z,20.34
2023-02-15T13:35:06.584Z,20.34
2023-02-15T13:38:13.956Z,20.44
2023-02-15T13:41:18.411Z,20.59
2023-02-15T13:44:26.192Z,20.68
2023-02-15T13:47:31.448Z,20.69
2023-02-15T13:50:40.629Z,20.80
2023-02-15T13:53:49.868Z,20.77
2023-02-15T13:56:57.681Z,20.91
2023-02-15T14:00:05.178Z,20.89
2023-02-15T14:03:27.082Z,20.87
2023-02-15T14:06:40.810Z,20.89
2023-02-15T14:09:48.815Z,20.95
2023-02-15T14:13:00.620Z,20.92
2023-02-15T14:16:05.737Z,20.99
2023-02-15T14:19:16.515Z,21.02
2023-02-15T14:22:27.336Z,21.05
2023-02-15T14:25:33.514Z,21.03
2023-02-15T14:28:39.899Z,21.02
2023-02-15T14:31:44.031Z,21.05
2023-02-15T14:34:49.212Z,21.11
2023-02-15T14:37:57.148Z,21.15
2023-02-15T14:41:04.997Z,21.27
2023-02-15T14:44:10.900Z,21.31
2023-02-15T14:47:15.949Z,21.35
2023-02-15T14:50:38.435Z,21.40
2023-02-15T14:53:43.282Z,21.36
2023-02-15T14:56:46.449Z,21.29
2023-02-15T14:59:56.994Z,21.38
2023-02-15T15:02:59.887Z,21.40
2023-02-15T15:06:25.469Z,21.39
2023-02-15T15:09:30.759Z,21.41
2023-02-15T15:12:41.212Z,21.45
2023-02-15T15:15:47.481Z,21.30
2023-02-15T15:18:51.106Z,21.32
2023-02-15T15:21:54.684Z,21.22
2023-02-15T15:24:59.617Z,21.24
2023-02-15T15:28:04.382Z,21.26
2023-02-15T15:31:16.900Z,21.23
2023-02-15T15:34:23.102Z,21.24
2023-02-15T15:37:50.177Z,21.27
2023-02-15T15:41:14.018Z,21.24
2023-02-15T15:48:01.840Z,21.29
2023-02-15T15:51:13.340Z,21.29
2023-02-15T15:54:17.693Z,21.30
2023-02-15T15:57:22.386Z,21.28
2023-02-15T16:00:33.658Z,21.30
2023-02-15T16:03:37.852Z,21.32
2023-02-15T16:06:41.486Z,21.28
2023-02-15T16:09:55.213Z,21.29
2023-02-15T16:12:58.139Z,21.34
2023-02-15T16:16:01.111Z,21.30
2023-02-15T16:19:06.617Z,21.31
2023-02-15T16:22:13.307Z,21.33
2023-02-15T16:25:30.535Z,21.30
2023-02-15T16:28:33.412Z,21.53
2023-02-15T16:31:36.427Z,21.41
2023-02-15T16:34:40.719Z,21.25
2023-02-15T16:37:43.789Z,21.39
2023-02-15T16:40:53.673Z,21.31
2023-02-15T16:43:58.211Z,21.29
2023-02-15T16:47:01.475Z,21.36
2023-02-15T16:50:06.484Z,21.26
2023-02-15T16:53:16.686Z,21.31
2023-02-15T16:56:24.692Z,21.41
2023-02-15T16:59:33.493Z,21.32
2023-02-15T17:02:54.898Z,21.38
2023-02-15T17:06:00.773Z,21.39
2023-02-15T17:09:05.443Z,21.34
2023-02-15T17:12:11.687Z,21.41
2023-02-15T17:15:29.357Z,21.37
2023-02-15T17:18:32.937Z,21.37
2023-02-15T17:21:40.559Z,21.34
2023-02-15T17:24:44.623Z,21.32
2023-02-15T17:27:52.778Z,21.25
2023-02-15T17:30:56.569Z,21.20
2023-02-15T17:34:00.096Z,21.09
2023-02-15T17:37:04.341Z,21.06
2023-02-15T17:40:16.629Z,21.03
2023-02-15T17:43:19.473Z,20.93
2023-02-15T17:46:23.893Z,20.91
2023-02-15T17:49:29.421Z,20.88
2023-02-15T17:52:34.197Z,20.87
2023-02-15T17:55:39.210Z,20.83
2023-02-15T17:58:42.116Z,20.78
2023-02-15T18:02:04.375Z,20.75
2023-02-15T18:05:28.070Z,20.72
2023-02-15T18:08:49.665Z,20.70
2023-02-15T18:11:52.448Z,20.68
2023-02-15T18:14:56.386Z,20.75
2023-02-15T18:17:59.435Z,20.69
2023-02-15T18:21:02.690Z,20.69
2023-02-15T18:24:07.108Z,20.84
2023-02-15T18:27:09.995Z,20.98
2023-02-15T18:30:15.901Z,21.14
2023-02-15T18:33:34.275Z,21.12
2023-02-15T18:36:41.864Z,21.12
2023-02-15T18:39:46.998Z,21.10
2023-02-15T18:42:50.038Z,21.10
2023-02-15T18:45:52.833Z,21.17
2023-02-15T18:48:55.705Z,21.12
2023-02-15T18:51:58.519Z,21.21
2023-02-15T18:55:04.321Z,21.21
2023-02-15T18:58:10.832Z,21.16
2023-02-15T19:01:16.913Z,21.25
2023-02-15T19:04:19.853Z,21.25
2023-02-15T19:07:24.282Z,21.20
2023-02-15T19:10:29.661Z,21.28
2023-02-15T19:13:34.664Z,21.15
2023-02-15T19:16:38.866Z,21.43
2023-02-15T19:19:41.666Z,21.37
2023-02-15T19:22:44.626Z,21.31
2023-02-15T19:25:49.557Z,21.33
2023-02-15T19:28:52.418Z,21.36
2023-02-15T19:31:55.411Z,21.36
2023-02-15T19:34:58.421Z,21.31
2023-02-15T19:38:03.178Z,21.31
2023-02-15T19:41:09.010Z,21.24
2023-02-15T19:44:11.870Z,21.19
2023-02-15T19:47:15.238Z,21.15
2023-02-15T19:50:19.114Z,21.11
2023-02-15T19:53:23.350Z,21.03
2023-02-15T19:56:28.950Z,20.99
2023-02-15T19:59:32.927Z,20.99
2023-02-15T20:02:36.049Z,20.89
2023-02-15T20:05:39.412Z,20.85
2023-02-15T20:08:42.813Z,20.83
2023-02-15T20:11:47.059Z,20.84
2023-02-15T20:14:49.894Z,20.71
2023-02-15T20:17:53.193Z,20.67
2023-02-15T20:20:57.890Z,20.60
2023-02-15T20:24:01.842Z,20.59
2023-02-15T20:27:07.495Z,20.54
2023-02-15T20:30:15.889Z,20.60
2023-02-15T20:33:19.546Z,20.60
2023-02-15T20:36:23.130Z,20.69
2023-02-15T20:39:26.005Z,20.79
2023-02-15T20:42:30.151Z,20.89
2023-02-15T20:45:33.635Z,20.94
2023-02-15T20:48:36.526Z,21.06
2023-02-15T20:51:41.777Z,21.05
2023-02-15T20:54:44.685Z,21.05
2023-02-15T20:57:49.268Z,21.08
2023-02-15T21:00:52.439Z,21.13
2023-02-15T21:03:57.679Z,21.11
2023-02-15T21:07:00.553Z,21.18
2023-02-15T21:10:03.914Z,21.21
2023-02-15T21:13:16.523Z,21.16
2023-02-15T21:16:19.386Z,21.21
2023-02-15T21:19:23.110Z,21.20
2023-02-15T21:22:25.915Z,21.22
2023-02-15T21:25:30.733Z,21.22
2023-02-15T21:28:34.925Z,21.22
2023-02-15T21:31:37.852Z,21.21
2023-02-15T21:34:41.140Z,21.25
2023-02-15T21:37:44.893Z,21.28
2023-02-15T21:40:48.170Z,21.22
2023-02-15T21:44:09.988Z,21.26
2023-02-15T21:47:37.080Z,21.27
2023-02-15T21:50:57.535Z,21.28
2023-02-15T21:54:00.361Z,21.29
2023-02-15T21:57:03.688Z,21.27
2023-02-15T22:00:14.013Z,21.28
2023-02-15T22:03:16.926Z,21.37
2023-02-15T22:06:19.768Z,21.33
2023-02-15T22:09:23.319Z,21.33
2023-02-15T22:12:26.180Z,21.21
2023-02-15T22:15:32.630Z,21.11
2023-02-15T22:18:35.856Z,21.20
2023-02-15T22:21:38.698Z,21.24
2023-02-15T22:24:41.861Z,21.19
2023-02-15T22:27:45.999Z,21.23
2023-02-15T22:30:50.202Z,21.22
2023-02-15T22:33:55.026Z,21.21
2023-02-15T22:36:58.226Z,21.19
2023-02-15T22:40:01.101Z,21.18
2023-02-15T22:43:04.986Z,21.25
2023-02-15T22:46:10.157Z,21.22
2023-02-15T22:49:13.862Z,21.18
2023-02-15T22:52:17.216Z,21.22
2023-02-15T22:55:20.797Z,21.24
2023-02-15T22:58:25.954Z,21.24
2023-02-15T23:01:32.444Z,21.22
2023-02-15T23:04:35.282Z,21.27
2023-02-15T23:07:38.133Z,21.34
2023-02-15T23:10:41.617Z,21.30
2023-02-15T23:13:44.425Z,21.30
2023-02-15T23:16:48.713Z,21.39
2023-02-15T23:19:51.614Z,21.42
2023-02-15T23:22:54.439Z,21.38
2023-02-15T23:25:57.317Z,21.41
2023-02-15T23:29:01.678Z,21.37
2023-02-15T23:32:06.514Z,21.38
2023-02-15T23:35:14.134Z,21.29
2023-02-15T23:38:20.996Z,21.27
2023-02-15T23:41:24.605Z,21.43
2023-02-15T23:44:27.572Z,21.32
2023-02-15T23:47:50.988Z,21.38
2023-02-15T23:50:53.806Z,21.41
2023-02-15T23:53:56.643Z,21.36
2023-02-15T23:57:01.294Z,21.41
